Aeroporto :
LOGIN :

Iscrizione | Disclaimer

   EN    FR    IT 

 










Sommario :    VFR   VFR Marginale   IFR   IFR Intensivo   IFR Molto Intensivo
Visibilità : 
Base nubi : 
>= 8 km
>= 3000ft
5 / 8 km
1000 / 3000 ft
1500m / 5 km
500 / 1000 ft
800 / 1500m
200 / 500 ft
< 800m
< 200 ft
Simboli :   Temporali  Nebbia  Neve Forte  Precipitazioni Forti  Vento > 20 kt
SIGMETs :   Varie  Temporali  Ghiacco  Turbolenza  Onda orograficha  Ceneri Vulcaniche






- Altitudine del aeroporto : 125 ft
- Codice IATA : MGL


EDLN - Mönchengladbach

ULTIMO METAR :
  • 212220Z AUTO 34005KT 1700 R13/1000U // BKN002/// M04/M05 Q1039

METARs OBSOLETI :
  • 212150Z AUTO VRB02KT 5000 // NCD M03/M03 Q1039
  • 212120Z AUTO 33005KT 6000 // NCD M03/M04 Q1039
  • 212050Z AUTO 19003KT 150V260 6000 // NCD M02/M02 Q1039
  • 212020Z AUTO 31005KT 6000 // NCD M02/M03 Q1039
  • 211950Z AUTO VRB02KT 4700 // NCD M02/M03 Q1039
  • 211920Z 19003KT 9000 NSC M01/M02 Q1039

TAF TAF EDLN
Valido dal 21 a 18 ore il 22 a 03 ore UTC


211700Z 2118/2203 VRB03KT CAVOK
BECMG 2119/2121 3000 BR
PROB30
TEMPO 2119/2122 0400 FZFG OVC001



MetMap, La meteo Aeronautica in un colpo d'occhio ! - Copyright ORBIFLY Dicembre 2007 - Disclaimer

ORBIFLY MET'MAP TEAM :

Programmazione e sviluppo : Alexandra Zaïnal
Concezione : Baudouin d'Aumeries
Aiuto per la programmazione : Marc-Olivier Méhu
Supporto tecnico e logistico : Manuel Goepfert
Aiuto per la traduzione : Arnaldo La Scala

Contatto : metmap@orbifly.com




FONTI E CREDITI :

   NOAA